Time;durP1;ratioP1;P1;durP2;ratioP2;P2;SDS_P1;SDS_P2;PMS_P1;PMS_P2;Temp;Humidity;BMP_temperature;BMP_pressure;BME280_temperature;BME280_humidity;BME280_pressure;Samples;Min_cycle;Max_cycle;Signal;HPM_P1;HPM_P2
2024/02/03 00:04:17;;;;;;;;;;;;;;;6.82;63.30;96717.47;10432415;28;2241;-64
2024/02/03 00:09:21;;;;;;;;;;;;;;;7.00;59.94;96714.75;10428354;28;2100;-64
2024/02/03 00:14:28;;;;;;;;;;;;;;;7.01;58.90;96705.69;10432488;28;2170;-64
2024/02/03 00:19:31;;;;;;;;;;;;;;;7.16;56.44;96701.75;10434784;28;2057;-64
2024/02/03 00:24:34;;;;;;;;;;;;;;;7.17;55.23;96684.66;10433906;28;2048;-64
2024/02/03 00:29:40;;;;;;;;;;;;;;;7.34;54.25;96677.63;10424527;28;2308;-65
2024/02/03 00:34:46;;;;;;;;;;;;;;;7.38;51.87;96676.13;10431710;28;2108;-64
2024/02/03 00:39:52;;;;;;;;;;;;;;;7.36;51.82;96686.22;10433022;28;2340;-63
2024/02/03 00:44:56;;;;;;;;;;;;;;;7.57;49.87;96692.84;10434147;28;2006;-69
2024/02/03 00:49:59;;;;;;;;;;;;;;;7.50;50.21;96698.31;10434709;28;2143;-65
2024/02/03 00:55:05;;;;;;;;;;;;;;;7.55;49.58;96695.78;10429628;28;2227;-66
2024/02/03 01:00:17;;;;;;;;;;;;;;;7.35;50.92;96702.50;10431513;28;2049;-64
2024/02/03 01:05:21;;;;;;;;;;;;;;;7.40;50.27;96699.97;10410111;28;2056;-64
2024/02/03 01:10:26;;;;;;;;;;;;;;;7.37;50.48;96687.03;10430191;28;2249;-66
2024/02/03 01:15:30;;;;;;;;;;;;;;;7.28;51.09;96694.59;10432680;28;2190;-67
2024/02/03 01:20:36;;;;;;;;;;;;;;;7.08;52.94;96688.72;10430235;28;2365;-70
2024/02/03 01:25:39;;;;;;;;;;;;;;;6.94;53.29;96693.47;10429261;28;2045;-64
2024/02/03 01:30:44;;;;;;;;;;;;;;;7.12;51.61;96682.69;10433873;28;2347;-64
2024/02/03 01:35:48;;;;;;;;;;;;;;;6.99;51.15;96691.72;10427761;28;2339;-64
2024/02/03 01:40:57;;;;;;;;;;;;;;;7.07;51.33;96681.75;10430348;28;2004;-63
2024/02/03 01:46:01;;;;;;;;;;;;;;;7.19;48.59;96686.09;10428395;28;2325;-64
2024/02/03 01:51:05;;;;;;;;;;;;;;;7.19;47.81;96679.91;10429368;28;2184;-63
2024/02/03 01:56:08;;;;;;;;;;;;;;;7.29;47.72;96674.81;10429751;28;2441;-63
2024/02/03 02:01:12;;;;;;;;;;;;;;;7.37;46.52;96676.31;10427298;28;2203;-64
2024/02/03 02:06:27;;;;;;;;;;;;;;;7.18;47.43;96667.56;10427294;28;2272;-64
2024/02/03 02:16:52;;;;;;;;;;;;;;;7.16;47.07;96658.97;10425173;28;2042;-65
2024/02/03 02:21:58;;;;;;;;;;;;;;;7.21;45.68;96672.47;10411636;28;2077;-64
2024/02/03 02:27:04;;;;;;;;;;;;;;;7.22;44.78;96664.22;10423426;28;2175;-64
2024/02/03 02:32:11;;;;;;;;;;;;;;;7.22;46.31;96658.06;10434977;28;2069;-65
2024/02/03 02:37:15;;;;;;;;;;;;;;;7.13;45.50;96654.09;10421980;28;2125;-64
2024/02/03 02:42:20;;;;;;;;;;;;;;;7.21;45.07;96645.75;10425412;28;2957;-64
2024/02/03 02:47:22;;;;;;;;;;;;;;;7.43;44.01;96637.94;10430517;28;2060;-63
2024/02/03 02:52:29;;;;;;;;;;;;;;;7.35;43.73;96635.63;10411278;28;2080;-73
2024/02/03 02:57:34;;;;;;;;;;;;;;;7.40;42.85;96625.06;10426467;28;2024;-70
2024/02/03 03:02:38;;;;;;;;;;;;;;;7.29;43.41;96629.34;10429364;28;2123;-64
2024/02/03 03:07:41;;;;;;;;;;;;;;;7.22;43.99;96631.31;10421636;28;2056;-67
2024/02/03 03:12:45;;;;;;;;;;;;;;;7.33;44.20;96627.84;10426567;28;2246;-67
2024/02/03 03:17:51;;;;;;;;;;;;;;;7.26;44.55;96627.16;10430822;28;2102;-65
2024/02/03 03:22:55;;;;;;;;;;;;;;;7.19;44.93;96621.91;10433729;28;2165;-64
2024/02/03 03:28:01;;;;;;;;;;;;;;;7.32;44.11;96636.94;10433033;28;2114;-65
2024/02/03 03:33:05;;;;;;;;;;;;;;;7.22;44.75;96640.16;10436812;28;2088;-63
2024/02/03 03:38:11;;;;;;;;;;;;;;;7.21;45.58;96635.03;10445673;28;2100;-68
2024/02/03 03:43:17;;;;;;;;;;;;;;;7.22;45.35;96642.03;10439633;28;2132;-64
2024/02/03 03:48:20;;;;;;;;;;;;;;;7.16;45.87;96645.63;10437869;28;1944;-64
2024/02/03 03:53:26;;;;;;;;;;;;;;;7.14;46.27;96648.53;10434335;28;2345;-73
2024/02/03 03:58:33;;;;;;;;;;;;;;;7.10;47.57;96647.34;10422030;28;2164;-64
2024/02/03 04:03:40;;;;;;;;;;;;;;;7.07;48.61;96638.97;10435079;28;2092;-64
2024/02/03 04:08:43;;;;;;;;;;;;;;;7.12;48.60;96639.09;10433349;28;2267;-63
2024/02/03 04:14:00;;;;;;;;;;;;;;;7.02;50.68;96634.31;10438472;28;2052;-64
2024/02/03 04:19:05;;;;;;;;;;;;;;;7.01;52.75;96654.09;10433199;28;2076;-63
2024/02/03 04:24:08;;;;;;;;;;;;;;;7.09;53.87;96651.06;10417484;28;2140;-63
2024/02/03 04:29:15;;;;;;;;;;;;;;;6.98;55.61;96655.34;10432131;28;2109;-64
2024/02/03 04:34:21;;;;;;;;;;;;;;;6.92;57.05;96650.09;10412838;28;2652;-64
2024/02/03 04:39:25;;;;;;;;;;;;;;;6.94;57.80;96661.38;10431192;28;2306;-64
2024/02/03 04:44:39;;;;;;;;;;;;;;;6.88;58.75;96673.00;10432251;28;2040;-64
2024/02/03 04:49:42;;;;;;;;;;;;;;;6.78;60.47;96654.81;10430833;28;2143;-65
2024/02/03 04:54:50;;;;;;;;;;;;;;;6.50;64.43;96650.91;10431416;28;2083;-63
2024/02/03 04:59:53;;;;;;;;;;;;;;;6.54;64.12;96650.44;10432867;28;2013;-63
2024/02/03 05:04:59;;;;;;;;;;;;;;;6.46;64.94;96641.69;10431784;28;2274;-62
2024/02/03 05:10:09;;;;;;;;;;;;;;;6.41;67.18;96640.75;10426519;28;2044;-66
2024/02/03 05:15:20;;;;;;;;;;;;;;;6.56;68.64;96649.19;10414645;28;2052;-64
2024/02/03 05:20:23;;;;;;;;;;;;;;;6.46;71.42;96649.72;10414530;28;2177;-64
2024/02/03 05:25:30;;;;;;;;;;;;;;;6.36;76.34;96654.78;10429094;28;2103;-64
2024/02/03 05:30:37;;;;;;;;;;;;;;;6.22;81.75;96664.00;10426043;28;2639;-65
2024/02/03 05:35:42;;;;;;;;;;;;;;;6.31;81.35;96668.00;10437636;28;2113;-64
2024/02/03 05:40:47;;;;;;;;;;;;;;;6.26;83.20;96683.06;10430071;28;2093;-64
2024/02/03 05:45:50;;;;;;;;;;;;;;;6.27;84.37;96677.50;10429397;28;2143;-65
2024/02/03 05:50:54;;;;;;;;;;;;;;;6.18;87.30;96684.19;10429987;28;2029;-67
2024/02/03 05:55:59;;;;;;;;;;;;;;;6.21;88.19;96695.22;10419391;28;4113;-66
2024/02/03 06:01:03;;;;;;;;;;;;;;;6.01;91.85;96696.47;10432786;28;2206;-69
2024/02/03 06:06:08;;;;;;;;;;;;;;;5.87;95.88;96699.25;10426682;28;2056;-65
2024/02/03 06:11:30;;;;;;;;;;;;;;;5.73;100.00;96708.44;10425679;28;2274;-64
2024/02/03 06:16:37;;;;;;;;;;;;;;;5.61;100.00;96704.84;10408884;28;2238;-67
2024/02/03 06:21:42;;;;;;;;;;;;;;;5.58;100.00;96711.44;10429445;28;2120;-66
2024/02/03 06:26:48;;;;;;;;;;;;;;;5.50;100.00;96702.91;10428893;28;2328;-65
2024/02/03 06:31:51;;;;;;;;;;;;;;;5.32;100.00;96701.81;10434375;28;2076;-64
2024/02/03 06:36:55;;;;;;;;;;;;;;;5.27;100.00;96698.97;10426606;28;2104;-64
2024/02/03 06:41:59;;;;;;;;;;;;;;;5.41;100.00;96705.84;10422981;28;2122;-64
2024/02/03 06:47:06;;;;;;;;;;;;;;;5.46;100.00;96699.03;10427794;28;2171;-62
2024/02/03 06:52:17;;;;;;;;;;;;;;;5.62;100.00;96703.81;10424928;28;2358;-63
2024/02/03 06:57:21;;;;;;;;;;;;;;;5.80;100.00;96706.53;10411791;28;2104;-72
2024/02/03 07:02:26;;;;;;;;;;;;;;;5.84;98.42;96704.22;10427947;28;1980;-63
2024/02/03 07:07:29;;;;;;;;;;;;;;;5.88;95.99;96711.56;10386318;28;1211521;-63
2024/02/03 07:12:34;;;;;;;;;;;;;;;5.93;93.27;96711.75;10413785;28;2120;-65
2024/02/03 07:17:55;;;;;;;;;;;;;;;5.94;95.11;96715.25;10429800;28;2200;-66
2024/02/03 07:23:05;;;;;;;;;;;;;;;6.00;95.05;96708.19;10414007;28;2366;-65
2024/02/03 07:28:11;;;;;;;;;;;;;;;6.11;93.84;96715.47;10431396;28;2177;-63
2024/02/03 07:33:14;;;;;;;;;;;;;;;6.23;95.82;96719.00;10424225;28;2123;-65
2024/02/03 07:38:22;;;;;;;;;;;;;;;6.35;97.44;96716.41;10408252;28;2171;-64
2024/02/03 07:43:36;;;;;;;;;;;;;;;6.46;98.77;96715.66;10396336;28;2082;-63
2024/02/03 07:48:40;;;;;;;;;;;;;;;6.92;100.00;96717.72;10426413;28;2108;-68
2024/02/03 07:54:04;;;;;;;;;;;;;;;7.50;100.00;96714.38;10423457;28;2203;-71
2024/02/03 07:59:30;;;;;;;;;;;;;;;7.73;100.00;96707.41;10426134;28;2157;-72
2024/02/03 08:04:36;;;;;;;;;;;;;;;7.73;96.42;96712.78;10418455;28;2091;-74
2024/02/03 08:09:52;;;;;;;;;;;;;;;7.58;89.38;96706.03;10430906;28;2051;-68
2024/02/03 08:14:56;;;;;;;;;;;;;;;7.51;90.34;96704.50;10433717;28;2096;-67
2024/02/03 08:20:03;;;;;;;;;;;;;;;7.65;85.25;96699.75;10428587;28;2877;-68
2024/02/03 08:25:19;;;;;;;;;;;;;;;7.85;76.53;96702.88;10426696;28;2165;-71
2024/02/03 08:30:25;;;;;;;;;;;;;;;7.84;78.40;96706.63;10417742;28;1994;-67
2024/02/03 08:35:34;;;;;;;;;;;;;;;8.01;73.07;96694.13;10427829;28;2029;-67
2024/02/03 08:40:46;;;;;;;;;;;;;;;8.16;69.90;96698.22;10432548;28;2212;-66
2024/02/03 08:45:51;;;;;;;;;;;;;;;8.31;62.51;96685.94;10415159;28;2277;-66
2024/02/03 08:50:58;;;;;;;;;;;;;;;8.46;59.17;96690.84;10416121;28;1929;-66
2024/02/03 08:56:06;;;;;;;;;;;;;;;8.62;57.84;96683.91;10427978;28;2056;-65
2024/02/03 09:01:10;;;;;;;;;;;;;;;8.75;56.73;96688.16;10432731;28;1927;-65
2024/02/03 09:06:14;;;;;;;;;;;;;;;8.85;56.31;96693.72;10427484;28;2034;-67
2024/02/03 09:11:19;;;;;;;;;;;;;;;9.00;56.95;96694.00;10430837;28;2092;-71
2024/02/03 09:16:23;;;;;;;;;;;;;;;9.06;57.97;96703.75;10424108;28;2324;-65
2024/02/03 09:21:32;;;;;;;;;;;;;;;9.21;62.76;96708.56;10425228;28;2060;-70
2024/02/03 09:26:35;;;;;;;;;;;;;;;9.29;71.89;96704.66;10425100;28;2057;-73
2024/02/03 09:31:44;;;;;;;;;;;;;;;9.27;79.88;96707.59;10425641;28;2054;-71
2024/02/03 09:36:59;;;;;;;;;;;;;;;9.28;83.55;96719.97;10427679;28;2109;-64
2024/02/03 09:42:05;;;;;;;;;;;;;;;9.32;86.59;96720.31;10426859;28;2048;-66
2024/02/03 09:47:17;;;;;;;;;;;;;;;9.26;88.31;96710.53;10410152;28;2193;-67
2024/02/03 09:52:22;;;;;;;;;;;;;;;9.19;93.95;96716.88;10427263;28;2313;-67
2024/02/03 09:57:31;;;;;;;;;;;;;;;9.18;98.09;96725.16;10424924;28;2237;-68
2024/02/03 10:02:35;;;;;;;;;;;;;;;9.29;99.99;96732.34;10423055;28;2086;-68
2024/02/03 10:07:42;;;;;;;;;;;;;;;9.30;100.00;96741.19;10419779;28;2112;-69
2024/02/03 10:12:47;;;;;;;;;;;;;;;9.29;100.00;96739.56;10426140;28;2112;-68
2024/02/03 10:17:51;;;;;;;;;;;;;;;9.41;100.00;96740.31;10403118;28;2085;-64
2024/02/03 10:22:59;;;;;;;;;;;;;;;9.42;100.00;96741.94;10414482;28;2049;-69
2024/02/03 10:28:18;;;;;;;;;;;;;;;9.42;100.00;96745.44;10429240;28;2274;-66
2024/02/03 10:33:29;;;;;;;;;;;;;;;9.43;100.00;96748.94;10433702;28;2086;-66
2024/02/03 10:38:41;;;;;;;;;;;;;;;9.41;100.00;96732.25;10409953;28;2797;-68
2024/02/03 10:43:49;;;;;;;;;;;;;;;9.52;100.00;96726.00;10424744;28;2136;-71
2024/02/03 10:48:54;;;;;;;;;;;;;;;9.72;100.00;96715.59;10423908;28;2051;-70
2024/02/03 10:54:03;;;;;;;;;;;;;;;9.71;100.00;96710.47;10426462;28;1963;-67
2024/02/03 10:59:18;;;;;;;;;;;;;;;9.87;100.00;96714.22;10428908;28;1975;-69
2024/02/03 11:04:31;;;;;;;;;;;;;;;9.86;100.00;96693.75;10426777;28;2115;-67
2024/02/03 11:09:39;;;;;;;;;;;;;;;9.92;100.00;96687.41;10406426;28;2080;-69
2024/02/03 11:14:52;;;;;;;;;;;;;;;9.98;100.00;96692.59;10427948;28;2123;-71
2024/02/03 11:20:22;;;;;;;;;;;;;;;10.18;100.00;96670.59;10426727;28;2985;-67
2024/02/03 11:25:30;;;;;;;;;;;;;;;10.28;99.29;96669.94;10429495;28;2064;-69
2024/02/03 11:30:45;;;;;;;;;;;;;;;10.32;99.75;96659.50;10430765;28;2219;-68
2024/02/03 11:35:52;;;;;;;;;;;;;;;10.43;99.35;96661.25;10427381;28;2216;-66
2024/02/03 11:41:06;;;;;;;;;;;;;;;10.42;100.00;96648.88;10436033;28;2286;-68
2024/02/03 11:46:10;;;;;;;;;;;;;;;10.64;100.00;96636.22;10435031;28;1931;-68
2024/02/03 11:51:18;;;;;;;;;;;;;;;10.77;97.90;96635.03;10436005;28;2199;-67
2024/02/03 11:56:23;;;;;;;;;;;;;;;10.80;99.66;96632.63;10430462;28;2068;-66
2024/02/03 12:01:30;;;;;;;;;;;;;;;10.86;99.76;96630.78;10432059;28;2137;-68
2024/02/03 12:06:39;;;;;;;;;;;;;;;10.91;98.05;96616.59;10427859;28;6909;-68
2024/02/03 12:11:47;;;;;;;;;;;;;;;10.89;100.00;96614.16;10416984;28;2073;-68
2024/02/03 12:16:54;;;;;;;;;;;;;;;10.97;99.63;96597.56;10430199;28;2127;-68
2024/02/03 12:21:58;;;;;;;;;;;;;;;11.04;99.00;96590.06;10435632;28;2179;-72
2024/02/03 12:27:04;;;;;;;;;;;;;;;11.18;99.75;96585.06;10432639;28;2179;-73
2024/02/03 12:32:07;;;;;;;;;;;;;;;11.27;100.00;96575.47;10422942;28;2048;-73
2024/02/03 12:37:21;;;;;;;;;;;;;;;11.30;100.00;96569.56;10431336;28;2234;-73
2024/02/03 12:42:26;;;;;;;;;;;;;;;11.51;98.46;96575.06;10434885;28;2112;-72
2024/02/03 12:47:31;;;;;;;;;;;;;;;11.57;97.23;96568.66;10435655;28;2116;-72
2024/02/03 12:52:42;;;;;;;;;;;;;;;11.60;97.23;96555.50;10432193;28;2307;-68
2024/02/03 12:57:46;;;;;;;;;;;;;;;11.60;98.59;96552.00;10433189;28;2200;-68
2024/02/03 13:02:56;;;;;;;;;;;;;;;11.75;99.92;96568.22;10431653;28;2022;-76
2024/02/03 13:07:59;;;;;;;;;;;;;;;11.81;100.00;96564.50;10429721;28;2213;-71
2024/02/03 13:13:05;;;;;;;;;;;;;;;11.87;100.00;96568.84;10413720;28;2201;-71
2024/02/03 13:18:12;;;;;;;;;;;;;;;11.89;100.00;96557.81;10429554;28;2207;-69
2024/02/03 13:23:22;;;;;;;;;;;;;;;11.75;100.00;96562.81;10416432;28;2255;-67
2024/02/03 13:28:29;;;;;;;;;;;;;;;11.71;100.00;96558.25;10432818;28;2192;-69
2024/02/03 13:33:41;;;;;;;;;;;;;;;11.68;100.00;96553.38;10437402;28;2106;-67
2024/02/03 13:38:47;;;;;;;;;;;;;;;11.71;100.00;96547.47;10432930;28;2081;-67
2024/02/03 13:43:55;;;;;;;;;;;;;;;11.72;100.00;96546.41;10430845;28;1955;-68
2024/02/03 13:49:07;;;;;;;;;;;;;;;11.72;100.00;96552.59;10427846;28;2434;-66
2024/02/03 13:54:19;;;;;;;;;;;;;;;11.70;100.00;96549.31;10422957;28;2097;-69
2024/02/03 13:59:28;;;;;;;;;;;;;;;11.68;100.00;96542.59;10421140;28;2086;-68
2024/02/03 14:04:39;;;;;;;;;;;;;;;11.62;100.00;96556.03;10424139;28;2064;-66
2024/02/03 14:09:43;;;;;;;;;;;;;;;11.67;100.00;96563.34;10422420;28;2084;-69
2024/02/03 14:14:48;;;;;;;;;;;;;;;11.59;100.00;96553.06;10412111;28;1957;-68
2024/02/03 14:19:52;;;;;;;;;;;;;;;11.63;100.00;96559.53;10425549;28;1997;-66
2024/02/03 14:24:56;;;;;;;;;;;;;;;11.64;100.00;96563.84;10424535;28;2236;-68
2024/02/03 14:30:10;;;;;;;;;;;;;;;11.54;100.00;96571.88;10430176;28;2324;-67
2024/02/03 14:35:18;;;;;;;;;;;;;;;11.53;100.00;96572.94;10424424;28;2440;-70
2024/02/03 14:40:26;;;;;;;;;;;;;;;11.47;100.00;96568.59;10422059;28;2076;-66
2024/02/03 14:45:29;;;;;;;;;;;;;;;11.36;100.00;96568.53;10423619;28;2240;-67
2024/02/03 14:50:34;;;;;;;;;;;;;;;11.33;100.00;96558.28;10425818;28;1990;-67
2024/02/03 14:55:43;;;;;;;;;;;;;;;11.23;100.00;96566.28;10427872;28;2376;-66
2024/02/03 15:00:47;;;;;;;;;;;;;;;11.28;100.00;96562.81;10426747;28;2081;-70
2024/02/03 15:05:50;;;;;;;;;;;;;;;11.27;100.00;96559.31;10429528;28;2308;-66
2024/02/03 15:10:54;;;;;;;;;;;;;;;11.15;100.00;96569.47;10428566;28;2108;-67
2024/02/03 15:16:20;;;;;;;;;;;;;;;11.05;100.00;96575.56;10434020;28;2120;-68
2024/02/03 15:21:23;;;;;;;;;;;;;;;10.91;100.00;96568.19;10434287;28;2001;-68
2024/02/03 15:26:27;;;;;;;;;;;;;;;10.91;100.00;96587.00;10435597;28;2609;-73
2024/02/03 15:31:44;;;;;;;;;;;;;;;10.73;100.00;96588.97;10439627;28;2120;-68
2024/02/03 15:36:51;;;;;;;;;;;;;;;10.62;100.00;96589.13;10420548;28;2192;-67
2024/02/03 15:41:57;;;;;;;;;;;;;;;10.32;100.00;96595.03;10417458;28;2060;-66
2024/02/03 15:47:06;;;;;;;;;;;;;;;9.82;100.00;96609.41;10434581;28;3091;-68
2024/02/03 15:52:11;;;;;;;;;;;;;;;9.37;100.00;96610.38;10432728;28;2212;-67
2024/02/03 15:57:17;;;;;;;;;;;;;;;9.08;100.00;96609.63;10414582;28;2296;-67
2024/02/03 16:02:30;;;;;;;;;;;;;;;8.90;100.00;96618.72;10411062;28;2253;-69
2024/02/03 16:07:37;;;;;;;;;;;;;;;8.75;100.00;96619.28;10427862;28;2424;-67
2024/02/03 16:12:46;;;;;;;;;;;;;;;8.43;100.00;96610.91;10431532;28;2076;-66
2024/02/03 16:17:54;;;;;;;;;;;;;;;8.26;100.00;96612.69;10414910;28;2203;-70
2024/02/03 16:23:04;;;;;;;;;;;;;;;8.03;100.00;96611.72;10432850;28;2075;-68
2024/02/03 16:28:15;;;;;;;;;;;;;;;7.97;100.00;96614.53;10437599;28;2070;-65
2024/02/03 16:33:20;;;;;;;;;;;;;;;7.88;100.00;96618.59;10422565;28;2105;-66
2024/02/03 16:38:24;;;;;;;;;;;;;;;7.77;100.00;96622.94;10416549;28;2370;-67
2024/02/03 16:43:28;;;;;;;;;;;;;;;7.58;100.00;96625.75;10433041;28;2120;-67
2024/02/03 16:48:31;;;;;;;;;;;;;;;7.35;100.00;96635.63;10430635;28;2139;-68
2024/02/03 16:53:34;;;;;;;;;;;;;;;7.22;100.00;96637.47;10427388;28;2147;-68
2024/02/03 16:58:41;;;;;;;;;;;;;;;7.07;100.00;96639.81;10414317;28;2123;-69
2024/02/03 17:03:46;;;;;;;;;;;;;;;7.03;100.00;96638.63;10415558;28;2041;-67
2024/02/03 17:09:01;;;;;;;;;;;;;;;7.01;100.00;96641.53;10424272;28;2058;-71
2024/02/03 17:14:08;;;;;;;;;;;;;;;6.99;100.00;96650.81;10413537;28;2260;-67
2024/02/03 17:19:24;;;;;;;;;;;;;;;6.92;100.00;96656.25;10427508;28;2192;-67
2024/02/03 17:24:28;;;;;;;;;;;;;;;6.93;100.00;96652.53;10429042;28;2307;-67
2024/02/03 17:29:32;;;;;;;;;;;;;;;6.88;100.00;96644.41;10427569;28;2185;-67
2024/02/03 17:34:43;;;;;;;;;;;;;;;6.91;100.00;96651.94;10426868;28;2408;-67
2024/02/03 17:39:50;;;;;;;;;;;;;;;6.79;100.00;96651.09;10426424;28;2115;-71
2024/02/03 17:44:55;;;;;;;;;;;;;;;6.75;100.00;96657.97;10412613;28;2089;-67
2024/02/03 17:49:59;;;;;;;;;;;;;;;6.71;100.00;96662.94;10427931;28;2017;-67
2024/02/03 17:55:04;;;;;;;;;;;;;;;6.61;100.00;96656.50;10427567;28;2056;-67
2024/02/03 18:00:14;;;;;;;;;;;;;;;6.54;100.00;96653.09;10415392;28;2107;-67
2024/02/03 18:05:21;;;;;;;;;;;;;;;6.50;100.00;96650.91;10413688;28;2127;-67
2024/02/03 18:10:25;;;;;;;;;;;;;;;6.45;100.00;96658.78;10425354;28;2057;-67
2024/02/03 18:15:34;;;;;;;;;;;;;;;6.40;100.00;96663.97;10427242;28;2128;-67
2024/02/03 18:20:43;;;;;;;;;;;;;;;6.33;100.00;96655.22;10424616;28;2146;-66
2024/02/03 18:25:55;;;;;;;;;;;;;;;6.25;100.00;96658.22;10427735;28;2044;-68
2024/02/03 18:31:01;;;;;;;;;;;;;;;6.31;100.00;96660.00;10432320;28;2068;-72
2024/02/03 18:36:06;;;;;;;;;;;;;;;6.22;100.00;96666.66;10392376;28;2264;-65
2024/02/03 18:41:10;;;;;;;;;;;;;;;6.18;100.00;96671.66;10413026;28;2376;-66
2024/02/03 18:46:17;;;;;;;;;;;;;;;6.16;100.00;96681.72;10426533;28;2060;-68
2024/02/03 18:51:23;;;;;;;;;;;;;;;6.21;100.00;96667.69;10409305;28;2037;-69
2024/02/03 18:56:27;;;;;;;;;;;;;;;6.10;100.00;96671.13;10422884;28;2127;-66
2024/02/03 19:01:35;;;;;;;;;;;;;;;6.08;100.00;96662.53;10433436;28;2068;-70
2024/02/03 19:06:52;;;;;;;;;;;;;;;6.03;100.00;96659.69;10432482;28;2123;-71
2024/02/03 19:11:58;;;;;;;;;;;;;;;5.88;100.00;96668.88;10429881;28;2287;-67
2024/02/03 19:17:10;;;;;;;;;;;;;;;5.84;100.00;96662.34;10429611;28;2005;-69
2024/02/03 19:22:20;;;;;;;;;;;;;;;5.81;100.00;96656.63;10433164;28;2092;-73
2024/02/03 19:27:30;;;;;;;;;;;;;;;5.82;100.00;96659.06;10429415;28;2167;-68
2024/02/03 19:32:35;;;;;;;;;;;;;;;5.74;100.00;96659.38;10430145;28;2176;-67
2024/02/03 19:37:44;;;;;;;;;;;;;;;5.73;100.00;96681.75;10432383;28;2146;-67
2024/02/03 19:42:48;;;;;;;;;;;;;;;5.73;100.00;96678.28;10425666;28;2267;-68
2024/02/03 19:48:02;;;;;;;;;;;;;;;5.69;100.00;96677.91;10427481;28;2057;-67
2024/02/03 19:53:11;;;;;;;;;;;;;;;5.61;100.00;96678.19;10428297;28;2094;-66
2024/02/03 19:58:18;;;;;;;;;;;;;;;5.67;100.00;96679.97;10431958;28;2144;-69
2024/02/03 20:03:25;;;;;;;;;;;;;;;5.66;100.00;96681.84;10405955;28;2470;-70
2024/02/03 20:08:30;;;;;;;;;;;;;;;5.72;100.00;96682.78;10436749;28;2100;-69
2024/02/03 20:13:33;;;;;;;;;;;;;;;5.71;100.00;96670.47;10437758;28;2064;-70
2024/02/03 20:18:42;;;;;;;;;;;;;;;5.76;100.00;96664.50;10436617;28;2088;-73
2024/02/03 20:24:12;;;;;;;;;;;;;;;5.77;100.00;96668.78;10435901;28;2120;-73
2024/02/03 20:29:22;;;;;;;;;;;;;;;5.71;100.00;96673.13;10432055;28;2287;-70
2024/02/03 20:34:31;;;;;;;;;;;;;;;5.73;100.00;96667.59;10423428;28;2072;-66
2024/02/03 20:39:37;;;;;;;;;;;;;;;5.70;100.00;96679.53;10437079;28;2433;-68
2024/02/03 20:44:43;;;;;;;;;;;;;;;5.58;100.00;96691.94;10435949;28;2227;-66
2024/02/03 20:49:49;;;;;;;;;;;;;;;5.68;100.00;96681.59;10421411;28;2259;-67
2024/02/03 20:54:58;;;;;;;;;;;;;;;5.66;100.00;96675.66;10434899;28;2058;-69
2024/02/03 21:00:14;;;;;;;;;;;;;;;5.64;100.00;96677.72;10435329;28;2272;-70
2024/02/03 21:05:19;;;;;;;;;;;;;;;5.59;100.00;96681.03;10435081;28;2171;-67
2024/02/03 21:10:37;;;;;;;;;;;;;;;5.65;100.00;96674.84;10432536;28;2128;-66
2024/02/03 21:15:55;;;;;;;;;;;;;;;5.77;100.00;96669.59;10433401;28;2108;-66
2024/02/03 21:21:02;;;;;;;;;;;;;;;5.81;100.00;96657.47;10431760;28;1988;-66
2024/02/03 21:26:08;;;;;;;;;;;;;;;5.89;100.00;96657.16;10429771;28;2289;-66
2024/02/03 21:31:13;;;;;;;;;;;;;;;5.89;100.00;96633.13;10413452;28;2374;-65
2024/02/03 21:36:18;;;;;;;;;;;;;;;5.96;100.00;96639.25;10419380;28;2132;-66
2024/02/03 21:41:30;;;;;;;;;;;;;;;5.91;100.00;96628.41;10429224;28;2338;-73
2024/02/03 21:46:42;;;;;;;;;;;;;;;5.86;100.00;96622.09;10426304;28;2027;-68
2024/02/03 21:51:48;;;;;;;;;;;;;;;5.88;100.00;96626.16;10413932;28;2277;-67
2024/02/03 21:56:53;;;;;;;;;;;;;;;5.97;100.00;96638.19;10410105;28;2003;-67
2024/02/03 22:01:58;;;;;;;;;;;;;;;6.02;100.00;96629.53;10414250;28;2167;-67
2024/02/03 22:07:04;;;;;;;;;;;;;;;6.06;100.00;96636.06;10426080;28;2153;-64
2024/02/03 22:12:12;;;;;;;;;;;;;;;5.99;100.00;96647.84;10428532;28;2124;-66
2024/02/03 22:17:27;;;;;;;;;;;;;;;6.00;100.00;96639.63;10411799;28;2292;-66
2024/02/03 22:22:32;;;;;;;;;;;;;;;6.02;100.00;96634.06;10425764;28;2123;-67
2024/02/03 22:27:39;;;;;;;;;;;;;;;5.99;100.00;96638.00;10427819;28;2459;-68
2024/02/03 22:32:43;;;;;;;;;;;;;;;6.04;100.00;96645.31;10426822;28;2052;-72
2024/02/03 22:37:49;;;;;;;;;;;;;;;6.02;100.00;96642.06;10422822;28;2765;-67
2024/02/03 22:42:54;;;;;;;;;;;;;;;6.02;100.00;96637.53;10405892;28;2143;-66
2024/02/03 22:47:59;;;;;;;;;;;;;;;6.01;100.00;96629.75;10412012;28;2134;-68
2024/02/03 22:53:05;;;;;;;;;;;;;;;6.09;100.00;96637.44;10428085;28;2057;-66
2024/02/03 22:58:09;;;;;;;;;;;;;;;6.03;100.00;96638.34;10432057;28;2060;-67
2024/02/03 23:03:17;;;;;;;;;;;;;;;6.00;100.00;96639.63;10426255;28;2068;-66
2024/02/03 23:08:22;;;;;;;;;;;;;;;5.99;100.00;96626.50;10426863;28;2172;-68
2024/02/03 23:13:30;;;;;;;;;;;;;;;6.06;100.00;96627.25;10424808;28;2076;-69
2024/02/03 23:18:39;;;;;;;;;;;;;;;6.08;100.00;96630.50;10407199;28;2320;-67
2024/02/03 23:23:45;;;;;;;;;;;;;;;5.88;100.00;96636.03;10428944;28;2240;-67
2024/02/03 23:28:57;;;;;;;;;;;;;;;5.85;100.00;96625.78;10427164;28;2249;-67
2024/02/03 23:34:06;;;;;;;;;;;;;;;5.72;100.00;96621.41;10428855;28;2184;-67
2024/02/03 23:39:12;;;;;;;;;;;;;;;5.71;100.00;96614.44;10434283;28;2127;-66
2024/02/03 23:44:22;;;;;;;;;;;;;;;5.70;100.00;96639.50;10421174;28;2193;-67
2024/02/03 23:49:26;;;;;;;;;;;;;;;5.63;100.00;96641.44;10434319;28;2020;-73
2024/02/03 23:54:34;;;;;;;;;;;;;;;5.69;100.00;96633.34;10433111;28;2129;-68
2024/02/03 23:59:38;;;;;;;;;;;;;;;5.68;100.00;96642.41;10433897;28;2172;-67
